Los Angeles, California
Traffic Map
Current Weather Conditions
Los Angeles, California
Clear
Clear
19°
Feels Like: 19°
Wind Chill: 19° Ceiling: Unl
Heat Index: 19° Visibility: 8mi
Dew Point: 12° Wind: 5mph
Humidity: 61% Direction: ° ()
Pressure: 29.75in Gusts: 0mph
Raw Report DataKCQT 310047Z AUTO VRB04KT 8SM CLR 19/12 A2975 RMK AO2 SLP073 T01940117
Traffic Incident Summary
Active as of:
Severity:
Category:
InformationThere was an issue retrieving the traffic information for this location. Please try a different location or try again shortly.
Advertisements
Track Severe Weather on mobile